Time;durP1;ratioP1;P1;durP2;ratioP2;P2;SDS_P1;SDS_P2;PMS_P1;PMS_P2;Temp;Humidity;BMP_temperature;BMP_pressure;BME280_temperature;BME280_humidity;BME280_pressure;Samples;Min_cycle;Max_cycle;Signal;HPM_P1;HPM_P2
2021/07/18 00:01:15;;;;;;;8.27;1.80;;;19.70;99.90;;;;;;4151693;28;21447;-71
2021/07/18 00:03:16;;;;;;;5.90;2.25;;;19.70;99.90;;;;;;4113286;28;20082;-72
2021/07/18 00:05:16;;;;;;;8.75;2.70;;;19.70;99.90;;;;;;4150326;28;20039;-71
2021/07/18 00:07:17;;;;;;;4.45;2.10;;;19.60;99.90;;;;;;4131264;28;20034;-72
2021/07/18 00:09:17;;;;;;;5.78;2.72;;;19.70;99.90;;;;;;4147314;28;20045;-71
2021/07/18 00:11:18;;;;;;;5.57;2.30;;;19.70;99.90;;;;;;4149272;28;20057;-72
2021/07/18 00:13:19;;;;;;;2.80;1.98;;;19.70;99.90;;;;;;4144796;28;20045;-72
2021/07/18 00:15:20;;;;;;;4.57;2.03;;;19.70;99.90;;;;;;4143758;28;20060;-71
2021/07/18 00:17:21;;;;;;;4.82;2.15;;;19.70;99.90;;;;;;4151549;28;20033;-72
2021/07/18 00:19:21;;;;;;;3.45;1.92;;;19.70;99.90;;;;;;4135286;28;20502;-72
2021/07/18 00:21:23;;;;;;;4.05;1.98;;;19.70;99.90;;;;;;4152850;28;20100;-72
2021/07/18 00:23:23;;;;;;;4.18;2.20;;;19.80;99.90;;;;;;4152226;28;20044;-72
2021/07/18 00:25:24;;;;;;;2.95;2.00;;;19.70;99.90;;;;;;4152525;28;20109;-72
2021/07/18 00:27:25;;;;;;;4.47;1.73;;;19.80;99.90;;;;;;4133407;28;20113;-72
2021/07/18 00:29:25;;;;;;;4.68;1.90;;;19.70;99.90;;;;;;4146648;28;20576;-72
2021/07/18 00:31:26;;;;;;;4.03;2.03;;;19.70;99.90;;;;;;4148237;28;20092;-72
2021/07/18 00:33:27;;;;;;;7.25;2.45;;;19.70;99.90;;;;;;4131881;28;20038;-71
2021/07/18 00:35:27;;;;;;;2.97;2.00;;;19.70;99.90;;;;;;4133525;28;20072;-72
2021/07/18 00:37:28;;;;;;;4.50;2.20;;;19.70;99.90;;;;;;4149799;28;20044;-71
2021/07/18 00:39:28;;;;;;;4.75;2.47;;;19.70;99.90;;;;;;4133760;28;20038;-72
2021/07/18 00:41:29;;;;;;;4.00;2.38;;;19.70;99.90;;;;;;4151603;28;20026;-72
2021/07/18 00:43:30;;;;;;;5.10;2.03;;;19.60;99.90;;;;;;4144583;28;20042;-72
2021/07/18 00:45:30;;;;;;;4.03;2.10;;;19.60;99.90;;;;;;4147301;28;20104;-72
2021/07/18 00:47:32;;;;;;;4.55;2.13;;;19.60;99.90;;;;;;4133854;28;20050;-72
2021/07/18 00:49:32;;;;;;;5.75;2.47;;;19.60;99.90;;;;;;4148964;28;20040;-72
2021/07/18 00:51:33;;;;;;;5.00;2.05;;;19.60;99.90;;;;;;4149865;28;20132;-72
2021/07/18 00:53:34;;;;;;;3.17;2.00;;;19.60;99.90;;;;;;4145203;28;20041;-72
2021/07/18 00:55:38;;;;;;;3.58;2.10;;;19.70;99.90;;;;;;4137337;28;20118;-72
2021/07/18 00:57:42;;;;;;;4.97;2.00;;;19.70;99.90;;;;;;4140312;28;20111;-72
2021/07/18 00:59:42;;;;;;;3.17;1.98;;;19.70;99.90;;;;;;4138817;28;20035;-71
2021/07/18 01:01:43;;;;;;;2.65;2.05;;;19.70;99.90;;;;;;4150131;28;20072;-72
2021/07/18 01:03:44;;;;;;;4.97;2.05;;;19.70;99.90;;;;;;4130239;28;20058;-71
2021/07/18 01:05:44;;;;;;;3.92;2.05;;;19.70;99.90;;;;;;4155857;28;20034;-72
2021/07/18 01:07:45;;;;;;;4.22;2.10;;;19.70;99.90;;;;;;4155978;28;20720;-72
2021/07/18 01:09:46;;;;;;;4.38;1.98;;;19.70;99.90;;;;;;4145214;28;20406;-72
2021/07/18 01:11:46;;;;;;;3.47;2.00;;;19.80;99.90;;;;;;4121813;28;20050;-72
2021/07/18 01:13:47;;;;;;;3.03;2.08;;;19.80;99.90;;;;;;4149460;28;20053;-72
2021/07/18 01:15:48;;;;;;;2.75;1.90;;;19.80;99.90;;;;;;4149734;28;20394;-72
2021/07/18 01:17:48;;;;;;;3.83;1.90;;;19.80;99.90;;;;;;4136983;28;20041;-72
2021/07/18 01:19:49;;;;;;;3.83;2.25;;;19.80;99.90;;;;;;4153704;28;20559;-72
2021/07/18 01:21:58;;;;;;;3.65;2.08;;;19.90;99.90;;;;;;4156358;28;20485;-72
2021/07/18 01:23:58;;;;;;;2.78;2.03;;;19.90;99.90;;;;;;4132248;28;20030;-73
2021/07/18 01:25:59;;;;;;;4.28;2.00;;;19.90;99.90;;;;;;4134063;28;20042;-71
2021/07/18 01:28:03;;;;;;;2.67;1.90;;;19.90;99.90;;;;;;4133724;28;20445;-72
2021/07/18 01:30:08;;;;;;;3.97;2.22;;;19.90;99.90;;;;;;4150172;28;20029;-72
2021/07/18 01:32:09;;;;;;;2.90;2.40;;;19.90;99.90;;;;;;4149356;28;20034;-72
2021/07/18 01:34:09;;;;;;;3.20;2.47;;;19.90;99.90;;;;;;4155851;28;20045;-71
2021/07/18 01:36:10;;;;;;;6.97;2.05;;;19.90;99.90;;;;;;4151183;28;20030;-72
2021/07/18 01:38:12;;;;;;;3.08;1.70;;;19.80;99.90;;;;;;4158019;28;20034;-72
2021/07/18 01:40:13;;;;;;;2.53;2.10;;;19.90;99.90;;;;;;4151067;28;20033;-72
2021/07/18 01:42:15;;;;;;;3.03;1.50;;;19.90;99.90;;;;;;4152812;28;20041;-72
2021/07/18 01:44:15;;;;;;;7.10;2.15;;;19.90;99.90;;;;;;4156682;28;20029;-72
2021/07/18 01:46:16;;;;;;;5.28;2.35;;;19.90;99.90;;;;;;4154248;28;20221;-72
2021/07/18 01:48:17;;;;;;;4.15;2.42;;;19.90;99.90;;;;;;4157095;28;21353;-72
2021/07/18 01:50:18;;;;;;;4.65;2.40;;;19.80;99.90;;;;;;4149749;28;20033;-72
2021/07/18 01:52:18;;;;;;;4.00;2.22;;;19.80;99.90;;;;;;4149120;28;20029;-71
2021/07/18 01:54:19;;;;;;;3.08;2.40;;;19.80;99.90;;;;;;4158332;28;20030;-72
2021/07/18 01:56:20;;;;;;;3.50;2.67;;;19.80;99.90;;;;;;4147251;28;20044;-72
2021/07/18 01:58:29;;;;;;;3.30;2.30;;;19.80;99.90;;;;;;4151283;28;20030;-72
2021/07/18 02:00:29;;;;;;;5.95;2.90;;;19.80;99.90;;;;;;4154808;28;20064;-72
2021/07/18 02:02:30;;;;;;;8.18;3.20;;;19.80;99.90;;;;;;4151464;28;20053;-72
2021/07/18 02:04:31;;;;;;;4.05;2.55;;;19.70;99.90;;;;;;4155884;28;20034;-72
2021/07/18 02:06:32;;;;;;;3.17;2.40;;;19.70;99.90;;;;;;4153559;28;20030;-72
2021/07/18 02:08:32;;;;;;;4.55;3.00;;;19.70;99.90;;;;;;4148995;28;20067;-72
2021/07/18 02:10:33;;;;;;;6.10;3.33;;;19.70;99.90;;;;;;4135913;28;20121;-72
2021/07/18 02:12:35;;;;;;;4.68;2.83;;;19.70;99.90;;;;;;4131662;28;20034;-72
2021/07/18 02:14:37;;;;;;;4.87;3.30;;;19.60;99.90;;;;;;4149367;28;20025;-72
2021/07/18 02:16:38;;;;;;;;;;;19.60;99.90;;;;;;4135570;28;20031;-72
2021/07/18 02:18:39;;;;;;;6.15;3.33;;;19.50;99.90;;;;;;4153512;28;19968;-72
2021/07/18 02:20:40;;;;;;;4.63;2.97;;;19.50;99.90;;;;;;4154115;28;20044;-72
2021/07/18 02:22:50;;;;;;;5.25;3.55;;;19.50;99.90;;;;;;4130359;28;20043;-71
2021/07/18 02:24:51;;;;;;;4.88;3.45;;;19.40;99.90;;;;;;4131741;28;20037;-71
2021/07/18 02:26:53;;;;;;;4.20;2.70;;;19.40;99.90;;;;;;4129244;28;20043;-72
2021/07/18 02:28:53;;;;;;;2.93;2.40;;;19.40;99.90;;;;;;4141301;28;20575;-72
2021/07/18 02:30:54;;;;;;;3.85;2.38;;;19.30;99.90;;;;;;4153000;28;20132;-72
2021/07/18 02:32:55;;;;;;;4.85;2.83;;;19.40;99.90;;;;;;4150822;28;20040;-72
2021/07/18 02:34:56;;;;;;;13.90;3.25;;;19.40;99.90;;;;;;4120374;28;20090;-72
2021/07/18 02:36:56;;;;;;;6.72;3.22;;;19.40;99.90;;;;;;4145643;28;20030;-72
2021/07/18 02:38:58;;;;;;;5.13;3.20;;;19.40;99.90;;;;;;4140607;28;20042;-72
2021/07/18 02:40:59;;;;;;;3.60;2.80;;;19.40;99.90;;;;;;4139383;28;20420;-72
2021/07/18 02:43:00;;;;;;;3.80;2.65;;;19.30;99.90;;;;;;4135907;28;20030;-72
2021/07/18 02:45:01;;;;;;;6.50;3.20;;;19.30;99.90;;;;;;4122779;28;20031;-71
2021/07/18 02:47:01;;;;;;;6.32;3.55;;;19.30;99.90;;;;;;4129072;28;20666;-72
2021/07/18 02:49:03;;;;;;;3.63;2.55;;;19.30;99.90;;;;;;4140572;28;20560;-72
2021/07/18 02:51:04;;;;;;;4.70;3.13;;;19.30;99.90;;;;;;4143367;28;20042;-72
2021/07/18 02:53:05;;;;;;;6.57;3.47;;;19.30;99.90;;;;;;4142226;28;20152;-72
2021/07/18 02:55:07;;;;;;;5.13;3.47;;;19.20;99.90;;;;;;4137715;28;20674;-72
2021/07/18 02:57:07;;;;;;;7.38;3.53;;;19.30;99.90;;;;;;4125313;28;20585;-71
2021/07/18 02:59:08;;;;;;;5.68;3.85;;;19.20;99.90;;;;;;4141626;28;20054;-72
2021/07/18 03:01:09;;;;;;;5.32;3.67;;;19.10;99.90;;;;;;4144560;28;20119;-72
2021/07/18 03:03:10;;;;;;;4.90;3.47;;;19.10;99.90;;;;;;4145633;28;20032;-71
2021/07/18 03:05:12;;;;;;;6.75;4.13;;;19.10;99.90;;;;;;4144101;28;20064;-72
2021/07/18 03:07:12;;;;;;;6.33;3.40;;;19.00;99.90;;;;;;4140370;28;20530;-71
2021/07/18 03:09:13;;;;;;;5.03;3.85;;;19.00;99.90;;;;;;4139205;28;20288;-72
2021/07/18 03:11:13;;;;;;;3.33;2.85;;;18.90;99.90;;;;;;4124565;28;20046;-71
2021/07/18 03:13:14;;;;;;;5.65;3.38;;;18.90;99.90;;;;;;4138185;28;20084;-72
2021/07/18 03:15:16;;;;;;;6.65;4.28;;;18.90;99.90;;;;;;4144618;28;20053;-72
2021/07/18 03:17:17;;;;;;;6.80;3.70;;;18.80;99.90;;;;;;4121955;28;20134;-72
2021/07/18 03:19:18;;;;;;;8.45;4.22;;;18.70;99.90;;;;;;4140184;28;20033;-71
2021/07/18 03:21:18;;;;;;;5.07;3.60;;;18.70;99.90;;;;;;4135893;28;20471;-71
2021/07/18 03:23:19;;;;;;;9.27;4.63;;;18.70;99.90;;;;;;4136553;28;20784;-71
2021/07/18 03:25:19;;;;;;;4.72;3.55;;;18.60;99.90;;;;;;4122228;28;20046;-72
2021/07/18 03:27:20;;;;;;;4.78;3.70;;;18.60;99.90;;;;;;4134925;28;20073;-72
2021/07/18 03:29:21;;;;;;;4.38;3.42;;;18.60;99.90;;;;;;4140471;28;20041;-72
2021/07/18 03:31:22;;;;;;;7.93;3.38;;;18.60;99.90;;;;;;4121566;28;20568;-71
2021/07/18 03:33:23;;;;;;;7.65;3.92;;;18.60;99.90;;;;;;4139950;28;20048;-71
2021/07/18 03:35:23;;;;;;;4.90;3.13;;;18.50;99.90;;;;;;4147118;28;20034;-71
2021/07/18 03:37:24;;;;;;;9.18;4.13;;;18.60;99.90;;;;;;4126954;28;20045;-71
2021/07/18 03:39:24;;;;;;;5.85;3.83;;;18.60;99.90;;;;;;4151821;28;20041;-71
2021/07/18 03:41:25;;;;;;;10.82;3.80;;;18.50;99.90;;;;;;4138932;28;20060;-71
2021/07/18 03:43:26;;;;;;;5.53;4.18;;;18.50;99.90;;;;;;4148503;28;20045;-72
2021/07/18 03:45:26;;;;;;;10.02;4.40;;;18.50;99.90;;;;;;4134527;28;20038;-72
2021/07/18 03:47:27;;;;;;;7.03;3.97;;;18.50;99.90;;;;;;4150344;28;20469;-72
2021/07/18 03:49:27;;;;;;;7.43;4.03;;;18.50;99.90;;;;;;4151771;28;20040;-71
2021/07/18 03:51:28;;;;;;;7.43;3.92;;;18.50;99.90;;;;;;4153311;28;20036;-72
2021/07/18 03:53:29;;;;;;;4.43;3.47;;;18.40;99.90;;;;;;4151517;28;20400;-72
2021/07/18 03:55:29;;;;;;;5.65;4.18;;;18.40;99.90;;;;;;4147525;28;20048;-72
2021/07/18 03:57:30;;;;;;;8.43;4.93;;;18.40;99.90;;;;;;4147746;28;20033;-71
2021/07/18 03:59:30;;;;;;;7.60;3.92;;;18.40;99.90;;;;;;4148063;28;20030;-72
2021/07/18 04:01:31;;;;;;;4.82;3.75;;;18.40;99.90;;;;;;4148092;28;20045;-71
2021/07/18 04:03:32;;;;;;;4.30;3.40;;;18.40;99.90;;;;;;4139372;28;20061;-71
2021/07/18 04:05:32;;;;;;;9.73;4.45;;;18.40;99.90;;;;;;4148623;28;20030;-72
2021/07/18 04:07:33;;;;;;;11.32;4.68;;;18.40;99.90;;;;;;4134955;28;20117;-72
2021/07/18 04:09:34;;;;;;;7.68;4.20;;;18.40;99.90;;;;;;4135594;28;20124;-71
2021/07/18 04:11:34;;;;;;;5.07;3.78;;;18.40;99.90;;;;;;4129595;28;20034;-72
2021/07/18 04:13:36;;;;;;;7.45;4.20;;;18.40;99.90;;;;;;4151528;28;20470;-72
2021/07/18 04:15:36;;;;;;;6.82;3.75;;;18.40;99.90;;;;;;4143145;28;20096;-72
2021/07/18 04:17:37;;;;;;;6.95;4.15;;;18.40;99.90;;;;;;4126152;28;20142;-72
2021/07/18 04:19:37;;;;;;;7.13;4.10;;;18.40;99.90;;;;;;4150487;28;20029;-71
2021/07/18 04:21:38;;;;;;;6.43;4.18;;;18.40;99.90;;;;;;4143740;28;20053;-71
2021/07/18 04:23:40;;;;;;;9.73;4.15;;;18.40;99.90;;;;;;4143964;28;20042;-72
2021/07/18 04:25:41;;;;;;;7.72;4.45;;;18.40;99.90;;;;;;4128315;28;20035;-71
2021/07/18 04:27:42;;;;;;;7.20;4.10;;;18.40;99.90;;;;;;4136630;28;20774;-72
2021/07/18 04:29:42;;;;;;;5.75;3.10;;;18.40;99.90;;;;;;4151648;28;20041;-72
2021/07/18 04:31:43;;;;;;;6.90;4.70;;;18.40;99.90;;;;;;4153344;28;20394;-72
2021/07/18 04:33:43;;;;;;;7.85;4.70;;;18.40;99.90;;;;;;4116199;28;20045;-72
2021/07/18 04:35:44;;;;;;;5.55;4.25;;;18.40;99.90;;;;;;4148729;28;20606;-71
2021/07/18 04:37:45;;;;;;;9.63;4.90;;;18.40;99.90;;;;;;4130092;28;20130;-71
2021/07/18 04:39:45;;;;;;;11.18;4.40;;;18.40;99.90;;;;;;4151008;28;20099;-72
2021/07/18 04:41:46;;;;;;;7.32;4.22;;;18.40;99.90;;;;;;4148022;28;20031;-72
2021/07/18 04:43:46;;;;;;;6.78;4.57;;;18.40;99.90;;;;;;4145826;28;20478;-72
2021/07/18 04:45:47;;;;;;;9.88;4.70;;;18.40;99.90;;;;;;4151556;28;20045;-71
2021/07/18 04:47:50;;;;;;;13.55;4.43;;;18.40;99.90;;;;;;4131844;28;20084;-72
2021/07/18 04:49:52;;;;;;;5.40;3.95;;;18.40;99.90;;;;;;4151422;28;20033;-72
2021/07/18 04:51:53;;;;;;;5.40;4.30;;;18.40;99.90;;;;;;4145969;28;20041;-72
2021/07/18 04:53:53;;;;;;;6.95;4.80;;;18.40;99.90;;;;;;4155891;28;20120;-72
2021/07/18 04:55:55;;;;;;;9.35;5.47;;;18.40;99.90;;;;;;4151065;28;20034;-72
2021/07/18 04:57:55;;;;;;;11.13;4.57;;;18.40;99.90;;;;;;4151017;28;20033;-72
2021/07/18 04:59:56;;;;;;;10.18;5.15;;;18.40;99.90;;;;;;4156343;28;20044;-72
2021/07/18 05:01:56;;;;;;;7.80;4.72;;;18.40;99.90;;;;;;4150989;28;20507;-72
2021/07/18 05:03:57;;;;;;;8.02;5.10;;;18.40;99.90;;;;;;4150502;28;20064;-71
2021/07/18 05:05:57;;;;;;;8.48;5.05;;;18.40;99.90;;;;;;4151230;28;20022;-72
2021/07/18 05:08:01;;;;;;;10.57;4.78;;;18.40;99.90;;;;;;4133533;28;20148;-72
2021/07/18 05:10:02;;;;;;;5.60;4.30;;;18.40;99.90;;;;;;4149513;28;20029;-72
2021/07/18 05:12:03;;;;;;;8.15;4.82;;;18.50;99.90;;;;;;4146777;28;20045;-72
2021/07/18 05:14:04;;;;;;;5.72;4.20;;;18.50;99.90;;;;;;4137764;28;20034;-72
2021/07/18 05:16:04;;;;;;;9.13;5.45;;;18.50;99.90;;;;;;4147076;28;20041;-72
2021/07/18 05:18:13;;;;;;;7.53;4.70;;;18.60;99.90;;;;;;4145380;28;20037;-71
2021/07/18 05:20:15;;;;;;;11.02;4.63;;;18.60;99.90;;;;;;4150331;28;20049;-72
2021/07/18 05:22:16;;;;;;;6.95;4.50;;;18.60;99.90;;;;;;4142920;28;20096;-72
2021/07/18 05:24:16;;;;;;;10.18;4.53;;;18.70;99.90;;;;;;4119994;28;20552;-71
2021/07/18 05:26:17;;;;;;;6.15;4.53;;;18.70;99.90;;;;;;4145461;28;20026;-72
2021/07/18 05:28:17;;;;;;;6.15;3.95;;;18.70;99.90;;;;;;4142258;28;20455;-72
2021/07/18 05:30:18;;;;;;;10.27;4.47;;;18.80;99.90;;;;;;4143765;28;20451;-72
2021/07/18 05:32:19;;;;;;;7.85;4.95;;;18.80;99.90;;;;;;4121693;28;20747;-72
2021/07/18 05:34:20;;;;;;;12.60;4.85;;;18.80;99.90;;;;;;4139176;28;20045;-72
2021/07/18 05:36:20;;;;;;;8.23;5.07;;;18.80;99.90;;;;;;4121061;28;20487;-72
2021/07/18 05:38:21;;;;;;;7.25;4.70;;;18.90;99.90;;;;;;4120565;28;20566;-74
2021/07/18 05:40:21;;;;;;;8.23;4.85;;;18.90;99.90;;;;;;4138720;28;20045;-73
2021/07/18 05:42:22;;;;;;;8.30;4.82;;;18.90;99.90;;;;;;4146040;28;20040;-73
2021/07/18 05:44:23;;;;;;;6.55;4.40;;;19.00;99.90;;;;;;4151077;28;20034;-73
2021/07/18 05:46:23;;;;;;;6.55;4.15;;;18.90;99.90;;;;;;4128019;28;20113;-73
2021/07/18 05:48:24;;;;;;;6.78;4.63;;;19.00;99.90;;;;;;4145651;28;20694;-73
2021/07/18 05:50:25;;;;;;;6.35;5.15;;;19.00;99.90;;;;;;4142456;28;20038;-73
2021/07/18 05:52:26;;;;;;;7.05;4.78;;;19.10;99.90;;;;;;4134794;28;20599;-73
2021/07/18 05:54:27;;;;;;;5.70;4.32;;;19.10;99.90;;;;;;4144610;28;20119;-73
2021/07/18 05:56:27;;;;;;;8.63;5.38;;;19.20;99.90;;;;;;4126578;28;20553;-73
2021/07/18 05:58:28;;;;;;;6.80;4.13;;;19.20;99.90;;;;;;4137265;28;20478;-73
2021/07/18 06:00:29;;;;;;;8.73;4.80;;;19.20;99.90;;;;;;4140824;28;20045;-73
2021/07/18 06:02:29;;;;;;;6.28;4.07;;;19.20;99.90;;;;;;4138038;28;20548;-73
2021/07/18 06:04:30;;;;;;;7.68;3.88;;;19.30;99.90;;;;;;4145451;28;20042;-73
2021/07/18 06:06:30;;;;;;;6.75;3.95;;;19.40;99.90;;;;;;4143739;28;20034;-73
2021/07/18 06:08:31;;;;;;;4.32;3.60;;;19.60;99.90;;;;;;4141777;28;20030;-73
2021/07/18 06:10:32;;;;;;;9.32;3.95;;;19.90;99.90;;;;;;4126589;28;20034;-73
2021/07/18 06:12:32;;;;;;;4.65;3.75;;;20.10;99.90;;;;;;4141213;28;20106;-73
2021/07/18 06:14:33;;;;;;;5.88;3.30;;;20.50;99.90;;;;;;4124345;28;20082;-73
2021/07/18 06:16:34;;;;;;;6.00;2.97;;;20.80;99.90;;;;;;4136474;28;20577;-74
2021/07/18 06:18:35;;;;;;;5.63;3.70;;;21.10;99.90;;;;;;4141276;28;20045;-73
2021/07/18 06:20:38;;;;;;;7.07;3.35;;;21.50;99.90;;;;;;4136698;28;20069;-74
2021/07/18 06:22:39;;;;;;;4.57;3.08;;;21.90;99.90;;;;;;4122625;28;20045;-73
2021/07/18 06:24:40;;;;;;;5.55;3.40;;;22.30;99.90;;;;;;4122261;28;20101;-73
2021/07/18 06:26:41;;;;;;;5.82;3.05;;;22.50;99.90;;;;;;4138625;28;20465;-74
2021/07/18 06:28:42;;;;;;;9.32;2.38;;;22.70;99.90;;;;;;4145965;28;20034;-74
2021/07/18 06:30:42;;;;;;;3.78;2.22;;;23.00;99.90;;;;;;4141364;28;20637;-73
2021/07/18 06:32:43;;;;;;;5.57;2.40;;;23.40;99.90;;;;;;4139793;28;20045;-74
2021/07/18 06:34:44;;;;;;;7.28;2.95;;;23.60;99.90;;;;;;4135529;28;20087;-74
2021/07/18 06:36:48;;;;;;;3.00;2.33;;;23.90;99.90;;;;;;4137115;28;20724;-74
2021/07/18 06:38:48;;;;;;;4.80;2.30;;;24.00;99.90;;;;;;4142799;28;20040;-74
2021/07/18 06:40:49;;;;;;;3.72;2.35;;;24.10;99.90;;;;;;4122854;28;20768;-74
2021/07/18 06:42:50;;;;;;;5.80;2.70;;;24.10;99.90;;;;;;4111745;28;20522;-74
2021/07/18 06:44:50;;;;;;;4.15;2.10;;;23.90;99.90;;;;;;4128701;28;20533;-74
2021/07/18 06:46:51;;;;;;;6.60;2.33;;;23.80;99.90;;;;;;4144121;28;20513;-74
2021/07/18 06:48:51;;;;;;;6.55;2.28;;;23.90;99.90;;;;;;4149040;28;20493;-72
2021/07/18 06:50:52;;;;;;;2.63;1.88;;;23.80;99.90;;;;;;4141839;28;20036;-72
2021/07/18 06:52:53;;;;;;;3.25;1.90;;;23.80;99.90;;;;;;4128393;28;20447;-72
2021/07/18 06:54:54;;;;;;;3.50;2.17;;;23.80;99.90;;;;;;4123180;28;20811;-72
2021/07/18 06:56:54;;;;;;;4.43;2.50;;;23.80;99.90;;;;;;4119770;28;20121;-71
2021/07/18 06:58:56;;;;;;;5.85;2.33;;;23.70;99.90;;;;;;4141707;28;20041;-72
2021/07/18 07:00:56;;;;;;;4.32;2.22;;;23.50;99.90;;;;;;4129936;28;20038;-71
2021/07/18 07:02:57;;;;;;;3.72;2.13;;;23.40;99.90;;;;;;4138129;28;20033;-72
2021/07/18 07:04:57;;;;;;;5.25;2.00;;;23.30;99.90;;;;;;4133310;28;20041;-72
2021/07/18 07:06:58;;;;;;;4.18;2.00;;;23.20;99.90;;;;;;4125792;28;20038;-72
2021/07/18 07:08:58;;;;;;;4.50;1.73;;;23.20;99.90;;;;;;4130166;28;20105;-72
2021/07/18 07:10:59;;;;;;;2.92;1.75;;;23.20;99.90;;;;;;4139664;28;20034;-71
2021/07/18 07:13:00;;;;;;;7.25;2.50;;;23.10;99.90;;;;;;4139142;28;20034;-72
2021/07/18 07:15:02;;;;;;;4.40;1.90;;;23.00;99.90;;;;;;4141420;28;20048;-72
2021/07/18 07:17:03;;;;;;;2.53;1.65;;;23.00;99.90;;;;;;4137939;28;20058;-71
2021/07/18 07:19:04;;;;;;;5.40;1.73;;;22.90;99.90;;;;;;4139964;28;20038;-71
2021/07/18 07:21:04;;;;;;;4.18;2.03;;;22.90;99.90;;;;;;4136662;28;20474;-72
2021/07/18 07:23:05;;;;;;;2.58;1.77;;;22.80;99.90;;;;;;4138328;28;20045;-71
2021/07/18 07:25:08;;;;;;;3.13;2.10;;;22.70;99.90;;;;;;4142556;28;20029;-71
2021/07/18 07:27:08;;;;;;;;;;;22.60;99.90;;;;;;4138904;28;20561;-71
2021/07/18 07:29:09;;;;;;;2.92;1.98;;;22.60;99.90;;;;;;4140475;28;19915;-71
2021/07/18 07:31:09;;;;;;;3.40;1.58;;;22.60;99.90;;;;;;4139661;28;20042;-71
2021/07/18 07:33:12;;;;;;;3.30;1.90;;;22.60;99.90;;;;;;4140611;28;20394;-72
2021/07/18 07:35:14;;;;;;;4.57;2.00;;;22.50;99.90;;;;;;4138930;28;20046;-72
2021/07/18 07:37:14;;;;;;;2.22;1.52;;;22.40;99.90;;;;;;4141368;28;20042;-72
2021/07/18 07:39:15;;;;;;;3.83;1.90;;;22.40;99.90;;;;;;4124274;28;20502;-72
2021/07/18 07:41:16;;;;;;;2.45;1.70;;;22.30;99.90;;;;;;4121636;28;20053;-72
2021/07/18 07:43:16;;;;;;;3.03;1.52;;;22.30;99.90;;;;;;4138714;28;20046;-72
2021/07/18 07:45:17;;;;;;;2.47;1.17;;;22.30;99.90;;;;;;4144953;28;20037;-72
2021/07/18 07:47:19;;;;;;;2.45;1.40;;;22.30;99.90;;;;;;4140458;28;20041;-72
2021/07/18 07:49:19;;;;;;;6.05;2.00;;;22.30;99.90;;;;;;4120252;28;20090;-72
2021/07/18 07:51:20;;;;;;;2.28;1.63;;;22.30;99.90;;;;;;4138424;28;20042;-72
2021/07/18 07:53:21;;;;;;;4.20;1.90;;;22.20;99.90;;;;;;4142705;28;25793;-72
2021/07/18 07:55:22;;;;;;;1.40;1.17;;;22.20;99.90;;;;;;4139997;28;20039;-72
2021/07/18 07:57:22;;;;;;;3.28;1.67;;;22.20;99.90;;;;;;4140620;28;20045;-72
2021/07/18 07:59:23;;;;;;;3.72;1.60;;;22.20;99.90;;;;;;4137164;28;20494;-72
2021/07/18 08:01:26;;;;;;;2.90;1.45;;;22.30;99.90;;;;;;4137571;28;20538;-72
2021/07/18 08:03:27;;;;;;;2.65;1.42;;;22.30;99.90;;;;;;4145494;28;20042;-72
2021/07/18 08:05:28;;;;;;;3.00;1.75;;;22.30;99.90;;;;;;4145094;28;20057;-72
2021/07/18 08:07:28;;;;;;;2.90;1.15;;;22.30;99.90;;;;;;4143721;28;20046;-72
2021/07/18 08:09:29;;;;;;;1.95;1.20;;;22.40;99.90;;;;;;4144732;28;20038;-72
2021/07/18 08:11:29;;;;;;;2.00;1.30;;;22.40;99.90;;;;;;4142836;28;20512;-72
2021/07/18 08:13:30;;;;;;;4.43;1.70;;;22.40;99.90;;;;;;4136862;28;20045;-72
2021/07/18 08:15:31;;;;;;;3.35;1.38;;;22.40;99.90;;;;;;4142685;28;20036;-72
2021/07/18 08:17:32;;;;;;;2.25;1.48;;;22.50;99.90;;;;;;4141871;28;20097;-72
2021/07/18 08:19:32;;;;;;;2.15;1.58;;;22.50;99.90;;;;;;4140568;28;20041;-72
2021/07/18 08:21:33;;;;;;;3.92;1.33;;;22.50;99.90;;;;;;4135482;28;20038;-72
2021/07/18 08:23:34;;;;;;;3.13;1.35;;;22.50;99.90;;;;;;4137974;28;20478;-72
2021/07/18 08:25:35;;;;;;;6.03;1.80;;;22.60;99.90;;;;;;4143354;28;20088;-72
2021/07/18 08:27:35;;;;;;;2.70;1.35;;;22.60;99.90;;;;;;4135743;28;20034;-72
2021/07/18 08:29:36;;;;;;;8.10;1.80;;;22.60;99.90;;;;;;4125121;28;20038;-72
2021/07/18 08:31:36;;;;;;;4.07;1.40;;;22.70;99.90;;;;;;4141027;28;20397;-72
2021/07/18 08:33:37;;;;;;;2.72;1.48;;;22.80;99.90;;;;;;4124569;28;20370;-72
2021/07/18 08:35:38;;;;;;;3.88;1.33;;;22.80;99.90;;;;;;4141287;28;20049;-72
2021/07/18 08:37:39;;;;;;;1.45;1.00;;;22.90;99.90;;;;;;4119879;28;20037;-72
2021/07/18 08:39:39;;;;;;;3.33;1.35;;;22.90;99.90;;;;;;4116702;28;20427;-72
2021/07/18 08:41:43;;;;;;;2.35;1.25;;;23.00;99.90;;;;;;4141542;28;20030;-72
2021/07/18 08:43:44;;;;;;;2.15;1.25;;;23.10;99.90;;;;;;4138658;28;20494;-72
2021/07/18 08:45:46;;;;;;;1.73;1.00;;;23.10;99.90;;;;;;4138332;28;20049;-72
2021/07/18 08:47:47;;;;;;;2.83;1.35;;;23.30;99.90;;;;;;4139761;28;20042;-72
2021/07/18 08:49:47;;;;;;;3.83;1.40;;;23.30;99.90;;;;;;4138221;28;20104;-72
2021/07/18 08:51:48;;;;;;;2.80;1.00;;;23.40;99.90;;;;;;4139814;28;20052;-72
2021/07/18 08:53:52;;;;;;;1.27;1.10;;;23.40;99.90;;;;;;4138890;28;20038;-72
2021/07/18 08:55:54;;;;;;;3.15;1.05;;;23.60;99.90;;;;;;4138713;28;20260;-72
2021/07/18 08:57:57;;;;;;;2.67;1.20;;;23.70;99.90;;;;;;4136404;28;20038;-72
2021/07/18 08:59:57;;;;;;;2.97;1.45;;;23.80;99.90;;;;;;4120558;28;20050;-72
2021/07/18 09:01:58;;;;;;;2.13;1.10;;;23.90;99.90;;;;;;4133817;28;20085;-72
2021/07/18 09:04:00;;;;;;;1.75;1.20;;;24.00;99.90;;;;;;4123263;28;20043;-72
2021/07/18 09:06:07;;;;;;;1.48;0.82;;;24.00;99.90;;;;;;4125306;28;20034;-72
2021/07/18 09:08:18;;;;;;;1.95;1.20;;;24.10;99.90;;;;;;4135075;28;20122;-72
2021/07/18 09:10:26;;;;;;;2.20;1.45;;;24.30;99.90;;;;;;4119199;28;20113;-72
2021/07/18 09:12:27;;;;;;;1.33;0.80;;;24.30;99.90;;;;;;4138034;28;20038;-72
2021/07/18 09:14:33;;;;;;;3.67;1.10;;;24.40;99.90;;;;;;4121479;28;20089;-72
2021/07/18 09:16:39;;;;;;;2.75;1.38;;;24.50;99.90;;;;;;4145130;28;20048;-72
2021/07/18 09:18:39;;;;;;;1.73;1.00;;;24.60;99.90;;;;;;4139220;28;20038;-72
2021/07/18 09:20:45;;;;;;;1.52;1.15;;;24.70;99.90;;;;;;4143901;28;20044;-72
2021/07/18 09:22:45;;;;;;;3.08;1.15;;;24.80;99.90;;;;;;4140440;28;20487;-72
2021/07/18 09:24:51;;;;;;;2.70;1.38;;;25.00;99.90;;;;;;4143899;28;20088;-72
2021/07/18 09:27:18;;;;;;;3.53;1.17;;;25.00;99.90;;;;;;4142927;28;22216;-73
2021/07/18 09:29:27;;;;;;;3.03;1.00;;;25.00;99.90;;;;;;4110042;28;20046;-72
2021/07/18 09:31:34;;;;;;;2.97;1.10;;;25.10;99.90;;;;;;4142195;28;20437;-72
2021/07/18 09:33:35;;;;;;;1.90;0.90;;;25.20;99.90;;;;;;4141458;28;20038;-72
2021/07/18 09:35:36;;;;;;;2.42;1.33;;;25.20;99.90;;;;;;4141208;28;20649;-72
2021/07/18 09:37:45;;;;;;;3.75;1.20;;;25.20;99.90;;;;;;4142816;28;20141;-72
2021/07/18 09:39:57;;;;;;;1.60;1.42;;;25.20;99.90;;;;;;4126237;28;20026;-72
2021/07/18 09:41:58;;;;;;;1.90;1.05;;;25.20;99.90;;;;;;4140465;28;20093;-72
2021/07/18 09:43:59;;;;;;;3.88;1.70;;;25.30;99.90;;;;;;4138108;28;20703;-72
2021/07/18 09:46:06;;;;;;;48.38;1.65;;;25.30;99.90;;;;;;4143671;28;20080;-72
2021/07/18 09:48:10;;;;;;;2.33;1.33;;;25.40;99.90;;;;;;4151666;28;20045;-72
2021/07/18 09:50:24;;;;;;;2.03;1.23;;;25.50;99.90;;;;;;4155031;28;20038;-72
2021/07/18 09:52:27;;;;;;;1.98;1.40;;;25.50;99.90;;;;;;4131478;28;20638;-72
2021/07/18 09:54:31;;;;;;;2.22;1.25;;;25.60;99.90;;;;;;4133251;28;20402;-72
2021/07/18 09:56:32;;;;;;;1.90;1.20;;;25.60;99.90;;;;;;4147878;28;20673;-72
2021/07/18 09:58:34;;;;;;;1.13;0.85;;;25.70;99.90;;;;;;4138539;28;20120;-72
2021/07/18 10:00:42;;;;;;;1.73;1.50;;;25.80;99.90;;;;;;4129977;28;20114;-72
2021/07/18 10:02:43;;;;;;;2.05;1.05;;;25.90;99.90;;;;;;4124286;28;20124;-72
2021/07/18 10:04:44;;;;;;;2.38;1.23;;;26.00;99.90;;;;;;4145076;28;20121;-72
2021/07/18 10:06:44;;;;;;;3.15;1.50;;;26.10;99.90;;;;;;4141022;28;20074;-72
2021/07/18 10:08:50;;;;;;;3.70;1.58;;;26.10;99.90;;;;;;4123321;28;20038;-72
2021/07/18 10:10:50;;;;;;;4.15;1.77;;;26.10;99.90;;;;;;4141717;28;20526;-76
2021/07/18 10:12:51;;;;;;;2.97;1.42;;;26.10;99.90;;;;;;4141820;28;20037;-77
2021/07/18 10:14:54;;;;;;;1.70;1.40;;;26.00;99.90;;;;;;4151949;28;20057;-74
2021/07/18 10:16:55;;;;;;;1.83;1.45;;;26.10;99.90;;;;;;4142256;28;20099;-72
2021/07/18 10:18:57;;;;;;;3.58;1.50;;;26.10;99.90;;;;;;4149779;28;20477;-72
2021/07/18 10:20:58;;;;;;;3.67;1.33;;;26.20;99.90;;;;;;4147502;28;20390;-72
2021/07/18 10:22:59;;;;;;;3.13;1.70;;;26.10;99.90;;;;;;4138478;28;20035;-72
2021/07/18 10:25:01;;;;;;;1.30;1.00;;;26.10;99.90;;;;;;4141164;28;20320;-72
2021/07/18 10:27:03;;;;;;;3.03;1.58;;;26.20;99.90;;;;;;4128540;28;20050;-73
2021/07/18 10:29:05;;;;;;;2.22;1.70;;;26.30;99.90;;;;;;4123055;28;20404;-72
2021/07/18 10:31:25;;;;;;;3.20;2.00;;;26.30;99.90;;;;;;4148357;28;20030;-72
2021/07/18 10:33:27;;;;;;;1.52;1.40;;;26.30;99.90;;;;;;4148311;28;20640;-72